Time;durP1;ratioP1;P1;durP2;ratioP2;P2;SDS_P1;SDS_P2;PMS_P1;PMS_P2;Temp;Humidity;BMP_temperature;BMP_pressure;BME280_temperature;BME280_humidity;BME280_pressure;Samples;Min_cycle;Max_cycle;Signal;HPM_P1;HPM_P2
2023/05/21 00:00:50;;;;;;;15.03;13.73;;;;;;;16.18;100.00;97695.22;5075266;28;20208;-76
2023/05/21 00:03:17;;;;;;;15.30;13.80;;;;;;;16.13;100.00;97694.38;5082194;28;20215;-76
2023/05/21 00:05:45;;;;;;;14.93;13.53;;;;;;;16.12;100.00;97701.63;5075438;28;20225;-76
2023/05/21 00:08:12;;;;;;;17.80;14.17;;;;;;;16.10;100.00;97701.06;5075106;28;20204;-76
2023/05/21 00:10:39;;;;;;;15.63;14.23;;;;;;;16.10;100.00;97697.59;5091788;28;20563;-76
2023/05/21 00:13:05;;;;;;;16.17;14.67;;;;;;;16.12;100.00;97698.94;5079682;28;20211;-76
2023/05/21 00:15:31;;;;;;;15.53;14.23;;;;;;;16.04;100.00;97694.09;5095145;28;20226;-76
2023/05/21 00:17:58;;;;;;;16.37;14.73;;;;;;;16.04;100.00;97688.72;5075812;28;20204;-76
2023/05/21 00:20:24;;;;;;;17.13;14.77;;;;;;;16.02;100.00;97684.69;5074910;28;20203;-76
2023/05/21 00:22:50;;;;;;;17.47;15.60;;;;;;;16.03;100.00;97684.44;5087221;28;20670;-76
2023/05/21 00:25:17;;;;;;;16.87;15.13;;;;;;;16.01;100.00;97683.88;5095006;28;20261;-76
2023/05/21 00:27:43;;;;;;;16.37;14.37;;;;;;;16.01;100.00;97680.41;5078122;28;20212;-76
2023/05/21 00:30:10;;;;;;;15.97;14.57;;;;;;;15.98;100.00;97681.72;5074620;28;20211;-76
2023/05/21 00:32:36;;;;;;;15.70;14.20;;;;;;;15.99;100.00;97674.47;5087979;28;20227;-76
2023/05/21 00:35:03;;;;;;;16.27;14.67;;;;;;;15.97;100.00;97672.06;5091114;28;20253;-76
2023/05/21 00:37:33;;;;;;;15.43;13.97;;;;;;;16.11;100.00;97665.13;5073977;28;20670;-76
2023/05/21 00:40:01;;;;;;;15.87;14.47;;;;;;;16.06;100.00;97669.69;5074541;28;20223;-76
2023/05/21 00:42:29;;;;;;;16.40;14.80;;;;;;;15.97;100.00;97664.00;5087895;28;20200;-76
2023/05/21 00:44:56;;;;;;;16.47;14.87;;;;;;;15.92;100.00;97665.88;5093065;28;20204;-76
2023/05/21 00:47:23;;;;;;;16.67;15.07;;;;;;;15.90;100.00;97668.81;5074517;28;20231;-76
2023/05/21 00:49:52;;;;;;;17.47;15.03;;;;;;;15.90;100.00;97655.41;5074481;28;20208;-76
2023/05/21 00:52:19;;;;;;;16.60;14.90;;;;;;;15.90;100.00;97658.09;5086345;28;20632;-76
2023/05/21 00:54:50;;;;;;;15.37;14.00;;;;;;;15.95;100.00;97659.97;5079893;28;20204;-76
2023/05/21 00:57:20;;;;;;;17.87;16.17;;;;;;;15.85;100.00;97660.75;5073658;28;20225;-76
2023/05/21 00:59:48;;;;;;;17.70;15.73;;;;;;;15.86;100.00;97659.69;5074168;28;20205;-76
2023/05/21 01:02:17;;;;;;;17.23;15.63;;;;;;;15.84;100.00;97661.03;5084345;28;20226;-76
2023/05/21 01:04:46;;;;;;;17.43;15.63;;;;;;;15.76;100.00;97651.59;5092066;28;20262;-76
2023/05/21 01:07:14;;;;;;;17.47;15.83;;;;;;;15.79;100.00;97650.28;5074119;28;20240;-76
2023/05/21 01:09:42;;;;;;;17.20;15.40;;;;;;;15.81;100.00;97654.31;5073246;28;20204;-76
2023/05/21 01:12:09;;;;;;;17.37;15.63;;;;;;;15.76;100.00;97659.66;5073088;28;20220;-76
2023/05/21 01:14:40;;;;;;;18.47;16.60;;;;;;;15.77;100.00;97652.41;5091307;28;20200;-76
2023/05/21 01:17:09;;;;;;;17.60;15.90;;;;;;;15.79;100.00;97648.38;5078386;28;20271;-76
2023/05/21 01:19:36;;;;;;;17.53;15.83;;;;;;;15.72;100.00;97649.69;5074731;28;20197;-76
2023/05/21 01:22:07;;;;;;;17.57;15.80;;;;;;;15.67;100.00;97650.50;5073377;28;20656;-76
2023/05/21 01:24:34;;;;;;;19.10;17.30;;;;;;;15.65;100.00;97649.94;5074305;28;20201;-77
2023/05/21 01:27:02;;;;;;;17.93;16.13;;;;;;;15.70;100.00;97639.22;5074803;28;20224;-77
2023/05/21 01:29:28;;;;;;;17.57;15.30;;;;;;;15.65;100.00;97643.78;5078145;28;20207;-76
2023/05/21 01:32:13;;;;;;;18.70;16.87;;;;;;;15.60;100.00;97641.88;5081863;28;20220;-76
2023/05/21 01:34:47;;;;;;;17.33;15.63;;;;;;;15.61;100.00;97640.78;5074099;28;20204;-76
2023/05/21 01:37:31;;;;;;;19.53;17.33;;;;;;;15.65;100.00;97639.22;5090094;28;20255;-76
2023/05/21 01:40:13;;;;;;;17.77;15.97;;;;;;;15.59;100.00;97637.59;5084570;28;20222;-76
2023/05/21 01:42:43;;;;;;;18.00;16.10;;;;;;;15.66;100.00;97637.34;5089185;28;20200;-76
2023/05/21 01:45:11;;;;;;;17.80;16.00;;;;;;;15.54;100.00;97639.41;5077076;28;20201;-76
2023/05/21 01:47:39;;;;;;;18.27;16.57;;;;;;;15.57;100.00;97634.38;5073550;28;20283;-76
2023/05/21 01:50:06;;;;;;;19.10;16.33;;;;;;;15.57;100.00;97637.06;5063756;28;20196;-76
2023/05/21 01:52:33;;;;;;;18.27;16.43;;;;;;;15.49;100.00;97634.03;5075681;28;20224;-76
2023/05/21 01:55:00;;;;;;;18.10;16.17;;;;;;;15.47;100.00;97631.63;5091868;28;20289;-76
2023/05/21 01:57:26;;;;;;;18.90;16.87;;;;;;;15.48;100.00;97633.25;5093291;28;20203;-76
2023/05/21 01:59:53;;;;;;;18.40;16.47;;;;;;;15.65;100.00;97633.84;5089627;28;20219;-77
2023/05/21 02:02:20;;;;;;;19.97;17.87;;;;;;;15.55;100.00;97631.13;5093264;28;20204;-76
2023/05/21 02:04:46;;;;;;;18.33;16.50;;;;;;;15.53;100.00;97635.97;5089138;28;20231;-76
2023/05/21 02:07:13;;;;;;;19.30;17.23;;;;;;;15.43;100.00;97629.72;5091956;28;20281;-76
2023/05/21 02:09:40;;;;;;;19.00;17.00;;;;;;;15.40;100.00;97625.69;5089232;28;20203;-76
2023/05/21 02:12:07;;;;;;;18.63;16.77;;;;;;;15.45;100.00;97628.41;5097452;28;20219;-76
2023/05/21 02:14:33;;;;;;;18.93;17.10;;;;;;;15.42;100.00;97628.13;5086559;28;20212;-76
2023/05/21 02:17:00;;;;;;;18.47;16.67;;;;;;;15.41;100.00;97629.97;5077115;28;20236;-76
2023/05/21 02:19:27;;;;;;;18.53;16.83;;;;;;;15.44;100.00;97626.78;5077355;28;20292;-76
2023/05/21 02:21:53;;;;;;;18.63;16.83;;;;;;;15.34;100.00;97626.72;5077186;28;20200;-76
2023/05/21 02:24:21;;;;;;;18.90;17.10;;;;;;;15.22;100.00;97627.94;5076825;28;20548;-76
2023/05/21 02:26:49;;;;;;;18.73;17.03;;;;;;;15.26;100.00;97627.19;5077059;28;20224;-77
2023/05/21 02:29:15;;;;;;;19.60;17.70;;;;;;;15.18;100.00;97625.00;5081600;28;20199;-76
2023/05/21 02:31:42;;;;;;;19.90;17.90;;;;;;;15.22;100.00;97633.31;5097190;28;20223;-76
2023/05/21 02:34:08;;;;;;;19.17;17.37;;;;;;;15.26;100.00;97635.22;5092611;28;20210;-77
2023/05/21 02:36:34;;;;;;;19.33;17.43;;;;;;;15.19;100.00;97623.13;5086497;28;20224;-76
2023/05/21 02:39:01;;;;;;;18.60;16.97;;;;;;;15.14;100.00;97623.06;5076662;28;20208;-76
2023/05/21 02:41:28;;;;;;;18.13;16.47;;;;;;;15.17;100.00;97626.06;5076523;28;20604;-76
2023/05/21 02:43:54;;;;;;;18.20;16.43;;;;;;;15.09;100.00;97628.41;5077819;28;20569;-76
2023/05/21 02:46:20;;;;;;;18.37;16.60;;;;;;;15.01;100.00;97620.88;5074863;28;20564;-76
2023/05/21 02:48:47;;;;;;;20.63;17.60;;;;;;;15.07;100.00;97622.50;5076763;28;20205;-76
2023/05/21 02:51:13;;;;;;;19.40;17.27;;;;;;;15.06;100.00;97627.03;5095108;28;20228;-76
2023/05/21 02:53:39;;;;;;;18.73;16.83;;;;;;;15.06;100.00;97626.25;5094676;28;20215;-76
2023/05/21 02:56:06;;;;;;;19.27;17.47;;;;;;;15.08;100.00;97624.13;5078033;28;20231;-76
2023/05/21 02:58:32;;;;;;;19.97;17.87;;;;;;;15.00;100.00;97624.59;5076504;28;20204;-76
2023/05/21 03:00:58;;;;;;;19.60;17.77;;;;;;;14.93;100.00;97624.03;5076441;28;20196;-76
2023/05/21 03:03:25;;;;;;;19.80;17.90;;;;;;;14.97;100.00;97622.44;5076531;28;20212;-76
2023/05/21 03:05:51;;;;;;;18.80;17.00;;;;;;;14.99;100.00;97623.81;5080342;28;20217;-76
2023/05/21 03:08:18;;;;;;;20.37;17.80;;;;;;;14.96;100.00;97612.78;5096280;28;20212;-77
2023/05/21 03:10:44;;;;;;;19.73;17.80;;;;;;;14.98;100.00;97616.84;5082150;28;20205;-77
2023/05/21 03:13:10;;;;;;;19.77;17.47;;;;;;;15.24;100.00;97615.13;5076217;28;20213;-77
2023/05/21 03:15:37;;;;;;;18.10;16.20;;;;;;;15.13;100.00;97608.91;5090181;28;20571;-77
2023/05/21 03:18:04;;;;;;;19.27;17.47;;;;;;;15.08;100.00;97603.53;5096429;28;20254;-77
2023/05/21 03:20:31;;;;;;;19.23;17.40;;;;;;;14.96;100.00;97602.06;5085260;28;20219;-77
2023/05/21 03:22:59;;;;;;;20.37;18.30;;;;;;;14.89;100.00;97607.69;5074849;28;20204;-77
2023/05/21 03:25:25;;;;;;;20.17;18.17;;;;;;;14.91;100.00;97608.22;5080630;28;20286;-77
2023/05/21 03:27:52;;;;;;;20.17;18.27;;;;;;;14.88;100.00;97599.91;5075941;28;20215;-77
2023/05/21 03:30:18;;;;;;;19.57;17.57;;;;;;;14.85;100.00;97598.53;5075906;28;20208;-77
2023/05/21 03:32:45;;;;;;;19.90;17.90;;;;;;;14.84;100.00;97604.94;5075827;28;20224;-77
2023/05/21 03:35:11;;;;;;;20.17;18.10;;;;;;;14.82;100.00;97598.22;5081769;28;20200;-77
2023/05/21 03:37:37;;;;;;;19.50;17.70;;;;;;;14.82;100.00;97599.03;5075672;28;20208;-77
2023/05/21 03:40:05;;;;;;;19.60;17.60;;;;;;;14.77;100.00;97604.38;5078768;28;20210;-76
2023/05/21 03:42:31;;;;;;;20.47;18.37;;;;;;;14.67;100.00;97601.63;5087798;28;20201;-77
2023/05/21 03:44:57;;;;;;;19.87;18.03;;;;;;;14.74;100.00;97610.22;5081134;28;20204;-77
2023/05/21 03:47:24;;;;;;;20.53;18.53;;;;;;;14.74;100.00;97599.50;5075693;28;20211;-77
2023/05/21 03:49:50;;;;;;;19.60;17.70;;;;;;;14.64;100.00;97604.78;5075292;28;20219;-77
2023/05/21 03:52:16;;;;;;;20.00;18.20;;;;;;;14.70;100.00;97606.44;5075465;28;20235;-77
2023/05/21 03:54:43;;;;;;;19.97;17.70;;;;;;;14.72;100.00;97607.00;5079440;28;20201;-77
2023/05/21 03:57:09;;;;;;;19.57;17.67;;;;;;;14.68;100.00;97616.59;5075943;28;20229;-77
2023/05/21 03:59:36;;;;;;;19.97;17.97;;;;;;;14.75;100.00;97619.06;5075431;28;20238;-77
2023/05/21 04:02:02;;;;;;;20.33;18.20;;;;;;;14.79;100.00;97625.53;5075057;28;20214;-77
2023/05/21 04:04:29;;;;;;;19.27;17.33;;;;;;;14.67;100.00;97623.00;5075830;28;20222;-76
2023/05/21 04:06:55;;;;;;;19.97;17.87;;;;;;;14.59;100.00;97622.66;5074476;28;20228;-77
2023/05/21 04:09:21;;;;;;;19.47;17.43;;;;;;;14.54;100.00;97631.47;5075306;28;20207;-76
2023/05/21 04:11:48;;;;;;;20.23;18.13;;;;;;;14.74;100.00;97628.94;5078332;28;20227;-76
2023/05/21 04:14:14;;;;;;;19.30;17.33;;;;;;;14.71;100.00;97632.16;5080472;28;20204;-77
2023/05/21 04:16:42;;;;;;;20.00;18.17;;;;;;;14.59;100.00;97628.00;5074776;28;20330;-77
2023/05/21 04:19:09;;;;;;;20.27;18.37;;;;;;;14.56;100.00;97640.03;5075046;28;20240;-76
2023/05/21 04:21:36;;;;;;;22.40;20.13;;;;;;;14.44;100.00;97636.72;5075902;28;20200;-77
2023/05/21 04:24:02;;;;;;;21.90;19.60;;;;;;;14.51;100.00;97639.19;5075184;28;20274;-76
2023/05/21 04:26:33;;;;;;;21.10;18.90;;;;;;;14.57;100.00;97644.31;5079430;28;20224;-77
2023/05/21 04:29:01;;;;;;;19.60;17.73;;;;;;;14.63;100.00;97647.84;5093716;28;20211;-77
2023/05/21 04:31:28;;;;;;;20.27;18.37;;;;;;;14.73;100.00;97643.41;5086398;28;20293;-77
2023/05/21 04:33:54;;;;;;;20.23;18.13;;;;;;;14.64;100.00;97650.28;5074644;28;20201;-77
2023/05/21 04:36:21;;;;;;;20.07;18.17;;;;;;;14.58;100.00;97653.97;5074279;28;20252;-77
2023/05/21 04:38:47;;;;;;;20.37;18.23;;;;;;;14.63;100.00;97659.38;5074531;28;20205;-77
2023/05/21 04:41:13;;;;;;;20.50;18.40;;;;;;;14.60;100.00;97649.16;5079035;28;20651;-77
2023/05/21 04:43:42;;;;;;;20.10;18.20;;;;;;;14.59;100.00;97649.41;5095090;28;20290;-77
2023/05/21 04:46:09;;;;;;;20.37;18.47;;;;;;;14.62;100.00;97652.41;5090011;28;20228;-77
2023/05/21 04:48:35;;;;;;;21.10;19.10;;;;;;;14.63;100.00;97662.03;5094720;28;20203;-76
2023/05/21 04:51:04;;;;;;;20.37;18.27;;;;;;;14.66;100.00;97656.16;5089507;28;20209;-77
2023/05/21 04:53:31;;;;;;;19.53;17.70;;;;;;;14.80;100.00;97665.41;5073891;28;20737;-77
2023/05/21 04:55:58;;;;;;;19.67;17.87;;;;;;;14.70;100.00;97657.28;5073443;28;20240;-77
2023/05/21 04:58:25;;;;;;;20.67;18.67;;;;;;;14.61;100.00;97656.13;5092589;28;20238;-77
2023/05/21 05:00:52;;;;;;;20.63;18.73;;;;;;;14.60;100.00;97661.75;5092107;28;20303;-77
2023/05/21 05:03:18;;;;;;;19.43;17.43;;;;;;;14.73;100.00;97664.78;5073941;28;20240;-77
2023/05/21 05:05:45;;;;;;;21.17;19.17;;;;;;;14.83;100.00;97662.19;5074881;28;20220;-76
2023/05/21 05:08:11;;;;;;;20.03;18.13;;;;;;;14.73;100.00;97667.47;5080592;28;20211;-77
2023/05/21 05:10:38;;;;;;;22.23;18.23;;;;;;;14.71;100.00;97661.59;5075572;28;20281;-75
2023/05/21 05:13:04;;;;;;;20.53;18.53;;;;;;;14.69;100.00;97660.19;5075165;28;20235;-74
2023/05/21 05:15:30;;;;;;;21.00;18.87;;;;;;;14.84;100.00;97669.16;5081183;28;20224;-74
2023/05/21 05:17:57;;;;;;;20.77;18.47;;;;;;;14.77;100.00;97665.91;5080735;28;20200;-74
2023/05/21 05:20:23;;;;;;;20.37;18.20;;;;;;;14.71;100.00;97660.75;5078277;28;20220;-77
2023/05/21 05:22:49;;;;;;;20.37;18.30;;;;;;;14.64;100.00;97657.47;5082463;28;20200;-76
2023/05/21 05:25:16;;;;;;;20.00;18.10;;;;;;;14.65;100.00;97659.91;5079791;28;20212;-76
2023/05/21 05:27:42;;;;;;;20.63;18.50;;;;;;;14.77;100.00;97657.06;5081508;28;20201;-76
2023/05/21 05:30:09;;;;;;;20.63;18.63;;;;;;;14.72;100.00;97655.16;5078258;28;20204;-76
2023/05/21 05:32:35;;;;;;;20.60;18.57;;;;;;;14.79;100.00;97663.78;5071056;28;20273;-76
2023/05/21 05:35:02;;;;;;;20.40;18.47;;;;;;;14.69;100.00;97649.50;5079336;28;20223;-76
2023/05/21 05:37:29;;;;;;;20.67;18.63;;;;;;;14.64;100.00;97657.47;5080258;28;20236;-76
2023/05/21 05:39:56;;;;;;;21.00;18.90;;;;;;;14.72;100.00;97654.34;5081404;28;20208;-76
2023/05/21 05:42:22;;;;;;;21.33;19.30;;;;;;;14.76;100.00;97666.97;5080878;28;20295;-76
2023/05/21 05:44:49;;;;;;;20.17;18.07;;;;;;;14.80;100.00;97665.41;5079156;28;20690;-76
2023/05/21 05:47:16;;;;;;;19.50;17.77;;;;;;;14.88;100.00;97670.28;5081540;28;20219;-76
2023/05/21 05:49:43;;;;;;;20.73;18.57;;;;;;;14.97;100.00;97673.31;5079246;28;20207;-76
2023/05/21 05:52:09;;;;;;;20.23;18.17;;;;;;;14.96;100.00;97666.31;5079865;28;20675;-77
2023/05/21 05:54:36;;;;;;;20.23;18.37;;;;;;;14.99;100.00;97665.81;5081221;28;20196;-74
2023/05/21 05:57:02;;;;;;;20.80;18.57;;;;;;;14.98;100.00;97667.69;5078906;28;20221;-74
2023/05/21 05:59:28;;;;;;;18.97;17.03;;;;;;;15.05;100.00;97665.59;5077146;28;20691;-74
2023/05/21 06:01:55;;;;;;;21.23;19.13;;;;;;;14.99;100.00;97669.31;5078080;28;20204;-74
2023/05/21 06:04:21;;;;;;;20.73;18.70;;;;;;;14.92;100.00;97676.72;5075818;28;20652;-77
2023/05/21 06:06:47;;;;;;;20.80;18.77;;;;;;;14.97;100.00;97660.72;5078454;28;20713;-76
2023/05/21 06:09:14;;;;;;;20.53;18.60;;;;;;;15.01;100.00;97659.13;5079172;28;20667;-76
2023/05/21 06:11:40;;;;;;;21.30;19.23;;;;;;;15.05;100.00;97660.25;5081262;28;20199;-76
2023/05/21 06:14:06;;;;;;;20.37;18.47;;;;;;;15.03;100.00;97667.75;5077939;28;20206;-76
2023/05/21 06:16:33;;;;;;;20.43;18.53;;;;;;;15.12;100.00;97655.50;5079833;28;20228;-76
2023/05/21 06:18:59;;;;;;;20.30;18.30;;;;;;;15.26;100.00;97662.00;5079979;28;20196;-76
2023/05/21 06:21:25;;;;;;;20.87;18.73;;;;;;;15.31;100.00;97662.03;5078176;28;20209;-76
2023/05/21 06:23:52;;;;;;;21.50;19.30;;;;;;;15.26;100.00;97659.34;5071711;28;20200;-76
2023/05/21 06:26:18;;;;;;;20.97;18.93;;;;;;;15.53;100.00;97657.38;5073939;28;20246;-76
2023/05/21 06:28:45;;;;;;;20.43;18.33;;;;;;;15.48;100.00;97662.72;5077790;28;20205;-77
2023/05/21 06:31:12;;;;;;;19.47;17.53;;;;;;;15.61;100.00;97666.81;5081020;28;20202;-76
2023/05/21 06:33:39;;;;;;;20.23;18.23;;;;;;;15.66;100.00;97666.81;5078601;28;20600;-76
2023/05/21 06:36:05;;;;;;;18.67;16.90;;;;;;;15.61;100.00;97672.94;5078620;28;20228;-76
2023/05/21 06:38:32;;;;;;;19.83;17.87;;;;;;;15.70;100.00;97665.25;5080889;28;20238;-76
2023/05/21 06:40:58;;;;;;;19.67;17.67;;;;;;;15.57;100.00;97665.72;5075653;28;20664;-76
2023/05/21 06:43:24;;;;;;;19.77;17.77;;;;;;;15.52;100.00;97671.03;5079631;28;20192;-76
2023/05/21 06:45:51;;;;;;;20.33;18.17;;;;;;;15.77;100.00;97665.78;5076682;28;20228;-76
2023/05/21 06:48:17;;;;;;;19.63;17.70;;;;;;;16.00;100.00;97660.00;5078392;28;20215;-76
2023/05/21 06:50:44;;;;;;;18.93;17.13;;;;;;;16.17;100.00;97666.78;5079055;28;20215;-76
2023/05/21 06:53:10;;;;;;;20.20;18.30;;;;;;;16.04;100.00;97664.59;5077657;28;20223;-76
2023/05/21 06:55:37;;;;;;;19.23;17.27;;;;;;;16.04;100.00;97664.59;5082553;28;20578;-76
2023/05/21 06:58:03;;;;;;;18.73;17.00;;;;;;;16.18;100.00;97671.06;5083744;28;20205;-76
2023/05/21 07:00:29;;;;;;;19.20;17.40;;;;;;;16.33;100.00;97671.09;5080183;28;20212;-76
2023/05/21 07:02:56;;;;;;;18.47;16.67;;;;;;;16.32;100.00;97676.72;5082254;28;20201;-76
2023/05/21 07:05:22;;;;;;;18.77;16.87;;;;;;;16.36;100.00;97677.81;5085026;28;20231;-76
2023/05/21 07:07:48;;;;;;;17.60;16.10;;;;;;;16.47;100.00;97672.25;5078115;28;20207;-76
2023/05/21 07:10:15;;;;;;;18.33;16.63;;;;;;;16.34;100.00;97672.75;5082882;28;20206;-76
2023/05/21 07:12:41;;;;;;;18.13;16.60;;;;;;;16.38;100.00;97678.38;5081619;28;20223;-76
2023/05/21 07:15:08;;;;;;;17.03;15.43;;;;;;;16.46;100.00;97672.53;5084207;28;20200;-76
2023/05/21 07:17:36;;;;;;;16.93;15.33;;;;;;;16.56;100.00;97684.06;5080596;28;20209;-76
2023/05/21 07:20:03;;;;;;;16.67;15.17;;;;;;;16.93;100.00;97676.63;5084346;28;20658;-76
2023/05/21 07:22:29;;;;;;;17.17;15.37;;;;;;;17.19;100.00;97678.19;5081454;28;20231;-76
2023/05/21 07:24:56;;;;;;;15.47;14.07;;;;;;;17.30;100.00;97677.13;5080109;28;20230;-76
2023/05/21 07:27:22;;;;;;;16.83;15.03;;;;;;;17.34;100.00;97686.25;5083720;28;20255;-76
2023/05/21 07:29:49;;;;;;;16.80;15.20;;;;;;;17.28;100.00;97686.53;5079854;28;20205;-76
2023/05/21 07:32:16;;;;;;;16.43;15.03;;;;;;;17.56;100.00;97686.78;5082377;28;20226;-76
2023/05/21 07:34:42;;;;;;;16.67;14.97;;;;;;;17.71;100.00;97685.94;5080835;28;20211;-76
2023/05/21 07:37:09;;;;;;;16.17;14.57;;;;;;;17.56;100.00;97689.47;5080663;28;20220;-76
2023/05/21 07:39:36;;;;;;;15.97;14.47;;;;;;;17.58;100.00;97687.31;5084954;28;20196;-76
2023/05/21 07:42:03;;;;;;;15.70;14.30;;;;;;;17.36;100.00;97684.09;5078436;28;20213;-76
2023/05/21 07:44:30;;;;;;;14.27;12.97;;;;;;;17.38;100.00;97686.53;5083668;28;20204;-76
2023/05/21 07:46:57;;;;;;;15.57;14.07;;;;;;;17.25;100.00;97685.19;5078057;28;20269;-76
2023/05/21 07:49:24;;;;;;;15.20;13.80;;;;;;;17.43;100.00;97679.31;5081525;28;20209;-76
2023/05/21 07:51:50;;;;;;;18.00;14.10;;;;;;;17.92;100.00;97669.47;5083434;28;20283;-76
2023/05/21 07:54:17;;;;;;;15.00;13.70;;;;;;;17.84;100.00;97672.75;5079900;28;20695;-76
2023/05/21 07:56:43;;;;;;;15.57;14.17;;;;;;;17.98;100.00;97665.69;5083067;28;20695;-76
2023/05/21 07:59:09;;;;;;;14.40;13.10;;;;;;;18.16;100.00;97669.66;5080149;28;20214;-76
2023/05/21 08:01:36;;;;;;;14.83;13.53;;;;;;;18.51;100.00;97672.19;5077664;28;20214;-77
2023/05/21 08:04:04;;;;;;;16.30;14.70;;;;;;;18.46;100.00;97673.00;5076132;28;20246;-77
2023/05/21 08:06:32;;;;;;;13.20;11.90;;;;;;;18.79;100.00;97672.28;5082763;28;20710;-77
2023/05/21 08:09:02;;;;;;;13.47;12.27;;;;;;;18.80;100.00;97673.88;5079871;28;20201;-76
2023/05/21 08:11:29;;;;;;;13.50;12.27;;;;;;;18.95;100.00;97671.06;5085170;28;20223;-76
2023/05/21 08:13:56;;;;;;;14.07;12.30;;;;;;;19.11;100.00;97669.88;5082242;28;20223;-77
2023/05/21 08:16:23;;;;;;;16.83;12.10;;;;;;;19.01;99.51;97675.31;5080962;28;20236;-76
2023/05/21 08:18:50;;;;;;;13.27;12.17;;;;;;;18.77;100.00;97674.44;5083572;28;20206;-76
2023/05/21 08:21:17;;;;;;;12.93;11.83;;;;;;;19.02;100.00;97671.56;5079522;28;20571;-76
2023/05/21 08:23:44;;;;;;;13.87;12.23;;;;;;;19.20;98.28;97665.47;5073537;28;20266;-76
2023/05/21 08:26:11;;;;;;;12.87;11.67;;;;;;;19.17;96.67;97679.50;5077870;28;20288;-76
2023/05/21 08:28:40;;;;;;;13.17;11.67;;;;;;;19.30;95.08;97675.38;5078554;28;20204;-76
2023/05/21 08:31:06;;;;;;;13.17;11.90;;;;;;;19.42;94.47;97673.91;5080425;28;20200;-77
2023/05/21 08:33:36;;;;;;;16.73;11.37;;;;;;;19.18;93.17;97681.13;5080090;28;20224;-77
2023/05/21 08:36:03;;;;;;;12.20;11.20;;;;;;;19.15;94.99;97678.19;5081285;28;20224;-76
2023/05/21 08:38:30;;;;;;;12.60;11.37;;;;;;;19.37;91.26;97676.66;5079891;28;20294;-76
2023/05/21 08:40:57;;;;;;;11.97;10.97;;;;;;;19.54;92.77;97670.84;5076342;28;20196;-76
2023/05/21 08:43:27;;;;;;;12.30;11.10;;;;;;;19.63;96.34;97676.41;5082491;28;20191;-76
2023/05/21 08:45:55;;;;;;;13.37;12.17;;;;;;;19.44;92.43;97677.13;5078589;28;20232;-76
2023/05/21 08:48:23;;;;;;;13.23;12.03;;;;;;;19.58;92.22;97675.38;5083278;28;20639;-76
2023/05/21 08:50:53;;;;;;;13.47;12.27;;;;;;;19.57;93.17;97672.97;5073856;28;20258;-76
2023/05/21 08:53:22;;;;;;;12.80;11.70;;;;;;;19.66;92.73;97670.47;5083285;28;20556;-76
2023/05/21 08:55:49;;;;;;;12.90;11.60;;;;;;;19.71;91.51;97676.59;5077695;28;20223;-76
2023/05/21 08:58:15;;;;;;;13.77;12.33;;;;;;;19.75;91.37;97676.84;5062120;28;20220;-76
2023/05/21 09:00:42;;;;;;;12.17;11.07;;;;;;;20.02;91.42;97677.84;5081355;28;20562;-76
2023/05/21 09:03:11;;;;;;;13.33;12.17;;;;;;;19.87;90.20;97685.31;5078677;28;20207;-76
2023/05/21 09:05:44;;;;;;;11.23;10.17;;;;;;;19.96;92.13;97679.03;5077763;28;20224;-76
2023/05/21 09:08:44;;;;;;;11.73;10.73;;;;;;;19.87;89.34;97680.75;5075823;28;20647;-76
2023/05/21 09:11:10;;;;;;;11.63;10.63;;;;;;;20.01;88.39;97678.97;5063828;28;20204;-76
2023/05/21 09:13:38;;;;;;;12.10;10.00;;;;;;;20.11;88.93;97686.97;5082971;28;20219;-76
2023/05/21 09:16:06;;;;;;;12.10;11.00;;;;;;;19.96;87.11;97678.19;5078156;28;20239;-77
2023/05/21 09:18:32;;;;;;;13.73;10.87;;;;;;;19.97;89.11;97688.72;5080558;28;20669;-76
2023/05/21 09:21:19;;;;;;;11.17;9.93;;;;;;;19.87;88.88;97683.44;5077071;28;20522;-76
2023/05/21 09:23:45;;;;;;;10.63;9.63;;;;;;;19.95;88.63;97677.41;5083035;28;20197;-76
2023/05/21 09:26:12;;;;;;;10.17;9.37;;;;;;;19.92;85.96;97685.25;5080833;28;20216;-76
2023/05/21 09:28:39;;;;;;;10.37;9.47;;;;;;;20.03;87.77;97690.25;5072261;28;20223;-76
2023/05/21 09:31:05;;;;;;;11.37;10.30;;;;;;;19.96;87.64;97692.50;5081818;28;20211;-76
2023/05/21 09:33:31;;;;;;;10.97;9.90;;;;;;;19.63;86.67;97684.50;5077049;28;20219;-76
2023/05/21 09:35:58;;;;;;;10.83;9.10;;;;;;;20.12;85.97;97679.69;5081528;28;20595;-77
2023/05/21 09:38:25;;;;;;;9.87;8.97;;;;;;;19.99;84.36;97683.81;5080584;28;20207;-77
2023/05/21 09:40:55;;;;;;;10.53;9.63;;;;;;;19.96;84.54;97675.50;5079503;28;20208;-76
2023/05/21 09:43:21;;;;;;;10.73;9.30;;;;;;;20.33;86.66;97684.53;5077475;28;20251;-76
2023/05/21 09:45:55;;;;;;;10.67;9.57;;;;;;;20.40;86.30;97689.56;5078241;28;20221;-77
2023/05/21 09:48:43;;;;;;;10.23;9.33;;;;;;;20.59;87.35;97685.78;5077614;28;20200;-76
2023/05/21 09:51:18;;;;;;;10.03;9.03;;;;;;;20.79;82.15;97690.13;5071849;28;20208;-76
2023/05/21 09:53:44;;;;;;;9.80;8.90;;;;;;;20.97;85.49;97683.88;5076458;28;20790;-76
2023/05/21 09:56:11;;;;;;;10.90;9.17;;;;;;;20.93;84.80;97686.38;5070664;28;20220;-77
2023/05/21 09:58:38;;;;;;;9.70;8.90;;;;;;;21.04;83.86;97689.75;5081522;28;20195;-76
2023/05/21 10:01:05;;;;;;;9.47;8.67;;;;;;;20.93;80.83;97678.28;5069355;28;20204;-76
2023/05/21 10:03:33;;;;;;;9.33;8.53;;;;;;;21.24;79.53;97681.28;5080268;28;20647;-76
2023/05/21 10:05:59;;;;;;;9.55;8.65;;;;;;;21.09;81.11;97687.78;5076958;28;20242;-76
2023/05/21 10:08:30;;;;;;;8.87;8.13;;;;;;;21.22;78.79;97688.91;5078673;28;20567;-77
2023/05/21 10:10:56;;;;;;;9.33;8.43;;;;;;;21.21;80.24;97688.09;5080321;28;20200;-78
2023/05/21 10:13:23;;;;;;;10.02;9.10;;;;;;;21.13;80.62;97685.28;5079136;28;20235;-78
2023/05/21 10:15:58;;;;;;;10.32;9.40;;;;;;;20.95;79.32;97689.63;5075262;28;20247;-78
2023/05/21 10:18:25;;;;;;;11.13;10.23;;;;;;;21.01;79.99;97687.63;5082790;28;20670;-78
2023/05/21 10:20:53;;;;;;;10.15;9.20;;;;;;;21.14;79.14;97676.06;5081603;28;20223;-78
2023/05/21 10:23:20;;;;;;;10.52;9.40;;;;;;;21.43;80.09;97674.75;5079246;28;20564;-79
2023/05/21 10:25:49;;;;;;;9.45;8.63;;;;;;;21.59;79.18;97669.88;5079448;28;20224;-78
2023/05/21 10:28:16;;;;;;;9.07;8.27;;;;;;;21.96;78.49;97675.94;5081323;28;20214;-78
2023/05/21 10:30:43;;;;;;;9.40;8.48;;;;;;;22.01;76.15;97675.84;5078526;28;20204;-78
2023/05/21 10:33:11;;;;;;;10.98;9.88;;;;;;;22.02;74.06;97673.94;5086372;28;20588;-77
2023/05/21 10:35:39;;;;;;;9.63;8.82;;;;;;;21.95;76.30;97678.94;5082407;28;20224;-78
2023/05/21 10:38:09;;;;;;;11.75;8.80;;;;;;;21.79;75.41;97674.94;5081418;28;20207;-78
2023/05/21 10:40:35;;;;;;;10.70;9.77;;;;;;;21.54;77.18;97668.06;5080347;28;20201;-78
2023/05/21 10:43:09;;;;;;;9.57;8.52;;;;;;;21.73;77.72;97666.13;5079776;28;20922;-78
2023/05/21 10:46:10;;;;;;;8.70;7.95;;;;;;;21.79;76.08;97677.66;5077098;28;20224;-78
2023/05/21 10:49:01;;;;;;;10.90;8.20;;;;;;;21.62;75.12;97671.97;5064964;28;20250;-78
2023/05/21 10:51:46;;;;;;;8.73;7.88;;;;;;;21.16;76.32;97661.16;5086020;28;20197;-78
2023/05/21 10:54:51;;;;;;;9.52;8.63;;;;;;;21.09;76.16;97666.16;5083948;28;20224;-78
2023/05/21 10:57:43;;;;;;;8.65;7.85;;;;;;;21.22;78.65;97665.38;5082804;28;20262;-77
2023/05/21 11:00:12;;;;;;;9.23;8.30;;;;;;;21.25;77.69;97661.28;5080679;28;20231;-78
2023/05/21 11:02:39;;;;;;;9.85;8.95;;;;;;;21.47;75.04;97664.16;5085289;28;20205;-78
2023/05/21 11:05:05;;;;;;;8.95;8.15;;;;;;;21.75;76.80;97663.13;5084098;28;20204;-78
2023/05/21 11:08:01;;;;;;;9.77;8.80;;;;;;;21.64;74.60;97658.94;5082205;28;20204;-78
2023/05/21 11:10:38;;;;;;;9.77;8.98;;;;;;;22.06;77.40;97656.78;5066433;28;20664;-78
2023/05/21 11:13:18;;;;;;;8.70;7.95;;;;;;;21.76;75.56;97659.31;5082174;28;20287;-78
2023/05/21 11:16:00;;;;;;;9.30;8.50;;;;;;;21.21;74.71;97657.56;5083652;28;20242;-78
2023/05/21 11:18:36;;;;;;;8.75;8.05;;;;;;;21.55;76.50;97666.16;5083748;28;20207;-78